Kezdőlap
METAR-TAF:

METAR-TAF

Repülőterek :

Stony Rapids, Saskatchewan, Kanada

földrajzi szélesség: 59-15N, földrajzi hosszúság: 105-50W, magasság: 250 m

Jelenlegi meteorológiai megfigyelések

A jelentés 50 perccel ezelõtt készült, 01:00 UTC
Kelet-északkeleti szél 6 kt
Hőmérséklet 24°C
Páratartalom 44%
Légköri nyomás 1019 hPa
Látótávolság: 14.5 km
Derült ég

METAR: CYSF 230100Z AUTO 07006KT 9SM CLR 24/11 A3010 RMK SLP201 DENSITY ALT 1800FT

Idő: 19:50 (01:50 UTC)

Előrejelzés

A jelentés 2 órával és 10 perccel ezelõtt készült, 23:40 UTC
Az előrejelzés 23-én 00 óra UTC és 23-én 12 óra UTC között érvényes
Keleti szél 8 kt
Látótávolság: 10 km
Kevés felhő 4000 lábon

TAF: CYSF 222340Z 2300/2312 10008KT P6SM FEW040 RMK FCST BASED ON AUTO OBS. NXT FCST BY 230600Z

Meteorológiai megfigyelések és előrejelzések több, mint 4000 repülőtéren (METAR és TAF jelentéseket).

A térképen piros és sárga pontok jelzik az elérhető meteorológiai állomásokat.

Mozgassa az egeret a pont fölött, hogy megjelenjen az állomás neve.

Azután kattintson az időjárási megfigyelések és előrejelzések megtekintéséhez.

A térkép megváltoztatása: kattintson a fekete keresztel jelölt zöld gombra ráközelítéshez, a vonallal jelölt zöld gombra távolításhoz, vagy a zöld nyilakra a szomszédos térképek eléréséhez.


METAR-TAF: